АЭРОДРОМУУД

ICAO:
ZMUB
Нэр:
УЛААНБААТАР / БУЯНТ-УХАА
Ахц:
475033N 1064603E
231154 ZMUBYNYX
(A0981/21 NOTAMN
Q) ZMUB/QFATT/IV/BO /A /000/999/4750N10646E005
A) ZMUB B) 2112300000 C) 2201122359
E) TRIGGER NOTAM-PERM AIRAC AIP AMDT 08/21 WEF 30 DEC 2021 INTERMEDIATE HLDG PSN MARKINGS OF TWY C AND D WITHDRAWN)
- 4 days ago -
010612 ZMUBYNYX
(C0320/21 NOTAMR C0319/21
Q) ZMUB/QKKKK/K /K /K /000/999/4752N10350E999
A) ZMUB B) 2111010612 C) 2112010700 EST
E) CHECKLIST YEAR=2021 0182 0183 0274 0275 0276 0277 0278 0279 0280 0281 0282 0284 0285 0287 0289 0293 0294 0303 0304 0305 0306 0307 0312 0313 0314 0315 0316 0317 0318 LATEST PUBLICATIONS: AIRAC AIP AMDT: 07/21 WEF 02 DEC 2021 AIP AMDT : 06/21 PUBLICATION DATE 26 AUG 2021 AIP DATA SET : AIPZM-AMDT08-21 PUB 21 OCT 2021 OBST DATA SET : O-AREA1ZM200618 WEF 18 JUN 2020 O-AREA2ZMCK200618 WEF 18 JUN 2020 O-AREA2ZMUB200730 WEF 10 SEP 2020 O-AREA3ZMCK200618 WEF 18 JUN 2020 O-AREA3ZMUB200618 WEF 18 JUN 2020. TERRAIN DATA SET : T-AREA1ZM200618 WEF 18 JUN 2020 T-AREA2ZMCK200618 WEF 18 JUN 2020 T-AREA2ZMUB200618 WEF 18 JUN 2020 T-AREA3ZMCK200618 WEF 18 JUN 2020 T-AREA3ZMUB200618 WEF 18 JUN 2020. AD MAPPING DATA SET : AMDBZMCK200618 WEF 18 JUN 2020 AMDBZMUB200618 WEF 18 JUN 2020 AMDBZMDZ200618 WEF 18 JUN 2020 IFP DATA SET : IFPZM21 WEF 04 JAN 2021 AIP SUP CHECKLIST: AIP SUP: 01/20, 08/20 AIRAC AIP SUP: 01/21 AIC CHECKLIST: AIC (SERIES C): 02/08, 02/20, 01/21)
- 4 weeks ago -
010600 ZMUBYNYX
(A0900/21 NOTAMR A0771/21
Q) ZMUB/QKKKK/K /K /K /000/999/4752N10350E999
A) ZMUB B) 2111010600 C) 2112010700 EST
E) CHECKLIST YEAR=2021 0770 0784 0881 0882 0888 0889 0890 0891 0892 0893 0894 0895 0896 0897 0898 0899 LATEST PUBLICATIONS: AIRAC AIP AMDT: 07/21 WEF 02 DEC 2021 AIP AMDT : 06/21 PUBLICATION DATE 26 AUG 2021 AIP DATA SET : AIPZM-AMDT08-21 PUB 21 OCT 2021 OBST DATA SET : O-AREA1ZM200618 WEF 18 JUN 2020 O-AREA2ZMCK200618 WEF 18 JUN 2020 O-AREA2ZMUB200730 WEF 10 SEP 2020 O-AREA3ZMCK200618 WEF 18 JUN 2020 O-AREA3ZMUB200618 WEF 18 JUN 2020. TERRAIN DATA SET : T-AREA1ZM200618 WEF 18 JUN 2020 T-AREA2ZMCK200618 WEF 18 JUN 2020 T-AREA2ZMUB200618 WEF 18 JUN 2020 T-AREA3ZMCK200618 WEF 18 JUN 2020 T-AREA3ZMUB200618 WEF 18 JUN 2020. AD MAPPING DATA SET : AMDBZMCK200618 WEF 18 JUN 2020 AMDBZMUB200618 WEF 18 JUN 2020 AMDBZMDZ200618 WEF 18 JUN 2020 IFP DATA SET : IFPZM21 WEF 04 JAN 2021 AIP SUP CHECKLIST: AIP SUP: 01/20, 08/20 AIRAC AIP SUP: 01/21 AIC CHECKLIST: AIC (SERIES A): 04/17, 03/20, 06/20, 01/21, 02/21, 03/21)
- 4 weeks ago -
010200 ZMUBYNYX
(A0899/21 NOTAMN
Q) ZMUB/QFALT/IV/NBO/A /000/999/4750N10646E005
A) ZMUB B) 2111010200 C) 2111300000
E) AD AVBL FOR EMERGENCY LANDING.)
- 4 weeks ago -
METAR
METAR ZMUB 270300Z 00000MPS 8000 NSC M09/M13 Q1016 NOSIG RMK QFE654.9 69 NW MO=
- moments ago -
TAF
TAF ZMUB 262245Z 2700/2806 VRB02MPS 6000 SCT100 TXM05/2706Z TNM18/2722Z BECMG 2705/2707 33005MPS 9999 NSW SCT033 BKN100 TEMPO 2712/2802 6000 SN SCT030 BKN080 BECMG 2720/2722 VRB02MPS=
- 4 hours ago -
TAF ZMUB 261630Z 2618/2724 VRB02MPS 6000 SCT100 TNM19/2622Z TXM05/2706Z BECMG 2705/2707 33005MPS 9999 NSW SCT033 BKN100 TEMPO 2710/2724 6000 SN SCT030 BKN080=
- 10 hours ago -
TAF ZMUB 261040Z 2612/2718 VRB02MPS 6000 SCT100 TNM19/2622Z TXM05/2706Z BECMG 2705/2707 33005MPS 9999 NSW SCT033 BKN100 TEMPO 2708/2718 6000 SN SCT030 BKN080=
- 16 hours ago -
TAF ZMUB 260440Z 2606/2712 VRB02MPS 6000 SCT100 TXM01/2606Z TNM19/2622Z BECMG 2705/2707 33005MPS 9999 NSW SCT033 BKN100=
- 22 hours ago -
TAF ZMUB 252250Z 2600/2706 VRB02MPS 6000 SCT100 BECMG 2604/2606 9999 NSW=
- 1 day ago -
TAF ZMUB 252250Z 2600/2706 VRB02MPS 6000 SCT100 BECMG 2604/2606 9999 NSW=
- 1 day ago -
TAF ZMUB 252237Z 2600/2706 VRB02MPS 6000 SCT100 TXM01/2606Z TNM21/2622Z BECMG 2604/2606 9999 NSW BECMG 2622/2624 6000=
- 1 day ago -
TAF ZMUB 251630Z 2518/2624 VRB02MPS 9999 SCT100 TNM23/2522Z TXM01/2606Z BECMG 2522/2524 6000 BECMG 2604/2606 9999 NSW=
- 1 day ago -